TimeWET,TemperatureF,Dew PointF,Humidity,Sea Level PressureIn,VisibilityMPH,Wind Direction,Wind SpeedMPH,Gust SpeedMPH,PrecipitationIn,Events,Conditions,WindDirDegrees,DateUTC
6:00 AM,60,40,35,,12,ENE,2.3,,,,,60,2012-10-02 06:00:00
6:00 AM,60.8,39.2,45,30.21,-9999.0,ENE,2.3,-,N/A,,Clear,60,2012-10-02 06:00:00
7:00 AM,60.8,41.0,48,30.24,-9999.0,SE,3.5,-,N/A,,Clear,140,2012-10-02 07:00:00
8:00 AM,64.4,39.2,40,30.24,-9999.0,NE,2.3,-,N/A,,Clear,40,2012-10-02 08:00:00
9:00 AM,74,36,15,,12,Calm,Calm,,,,,,2012-10-02 09:00:00
9:00 AM,75.2,35.6,24,30.27,-9999.0,Calm,Calm,-,N/A,,Clear,0,2012-10-02 09:00:00
10:00 AM,78.8,32.0,18,30.27,-9999.0,ENE,2.3,-,N/A,,Clear,60,2012-10-02 10:00:00
11:00 AM,80.6,33.8,18,30.27,-9999.0,South,9.2,-,N/A,,Clear,180,2012-10-02 11:00:00
12:00 PM,82,33,9,,16,South,9.2,,,,Scattered Clouds,180,2012-10-02 12:00:00
12:00 PM,82.4,33.8,17,30.24,6.2,South,9.2,-,N/A,,Partly Cloudy,180,2012-10-02 12:00:00
1:00 PM,82.4,32.0,16,30.21,6.2,West,6.9,-,N/A,,Partly Cloudy,280,2012-10-02 13:00:00
2:00 PM,84.2,30.2,14,30.21,6.2,Calm,Calm,-,N/A,,Scattered Clouds,0,2012-10-02 14:00:00
3:00 PM,85,29,6,,16,SW,6.9,,,,Partly Cloudy,220,2012-10-02 15:00:00
3:00 PM,84.2,28.4,13,30.18,6.2,SW,6.9,-,N/A,,Scattered Clouds,220,2012-10-02 15:00:00
4:00 PM,84.2,28.4,13,30.18,6.2,WNW,6.9,-,N/A,,Scattered Clouds,300,2012-10-02 16:00:00
5:00 PM,84.2,26.6,12,30.18,6.2,SSE,4.6,-,N/A,,Partly Cloudy,160,2012-10-02 17:00:00
6:00 PM,83,27,6,,16,WSW,4.6,,,,,240,2012-10-02 18:00:00
6:00 PM,82.4,26.6,13,30.18,-9999.0,WSW,4.6,-,N/A,,Clear,240,2012-10-02 18:00:00
9:00 PM,76,33,12,,9,Calm,Calm,,,,,,2012-10-02 21:00:00
9:00 PM,75.2,33.8,22,30.24,-9999.0,Calm,Calm,-,N/A,,Clear,0,2012-10-02 21:00:00